Time;durP1;ratioP1;P1;durP2;ratioP2;P2;SDS_P1;SDS_P2;PMS_P1;PMS_P2;Temp;Humidity;BMP_temperature;BMP_pressure;BME280_temperature;BME280_humidity;BME280_pressure;Samples;Min_cycle;Max_cycle;Signal;HPM_P1;HPM_P2
2022/10/02 00:01:46;;;;;;;7.32;1.90;;;11.80;99.90;;;;;;5051658;28;20045;-69
2022/10/02 00:04:18;;;;;;;8.88;2.25;;;11.90;99.90;;;;;;5068363;28;20072;-69
2022/10/02 00:06:48;;;;;;;9.60;2.50;;;12.00;99.90;;;;;;5050980;28;20049;-69
2022/10/02 00:09:54;;;;;;;9.40;2.33;;;12.20;99.90;;;;;;5034165;28;20070;-69
2022/10/02 00:12:25;;;;;;;8.73;2.33;;;12.20;99.90;;;;;;5032449;28;20041;-69
2022/10/02 00:14:54;;;;;;;10.82;3.45;;;12.30;99.90;;;;;;5035009;28;20086;-70
2022/10/02 00:17:31;;;;;;;9.07;2.33;;;12.20;99.90;;;;;;5034893;28;20045;-69
2022/10/02 00:19:57;;;;;;;13.45;3.13;;;12.20;99.90;;;;;;5067463;28;20041;-70
2022/10/02 00:22:32;;;;;;;14.57;2.50;;;12.10;99.90;;;;;;5047723;28;20124;-70
2022/10/02 00:25:21;;;;;;;8.65;2.28;;;12.10;99.90;;;;;;5068234;28;20041;-69
2022/10/02 00:28:13;;;;;;;10.73;2.22;;;12.20;99.90;;;;;;5051294;28;20037;-69
2022/10/02 00:31:10;;;;;;;9.57;2.55;;;12.20;99.90;;;;;;5067271;28;20453;-69
2022/10/02 00:33:54;;;;;;;14.50;2.42;;;12.00;99.90;;;;;;5050523;28;20040;-69
2022/10/02 00:36:45;;;;;;;9.65;2.22;;;12.10;99.90;;;;;;5051581;28;20045;-69
2022/10/02 00:39:22;;;;;;;10.07;2.30;;;12.00;99.90;;;;;;5051302;28;20506;-69
2022/10/02 00:42:02;;;;;;;11.27;2.90;;;12.00;99.90;;;;;;5067244;28;20072;-69
2022/10/02 00:45:15;;;;;;;14.60;2.67;;;12.10;99.90;;;;;;5050541;28;20503;-69
2022/10/02 00:48:02;;;;;;;10.95;2.85;;;12.00;99.90;;;;;;5015607;28;20049;-69
2022/10/02 00:50:27;;;;;;;13.02;2.47;;;12.00;99.90;;;;;;5050716;28;20106;-68
2022/10/02 00:53:08;;;;;;;12.95;2.20;;;12.00;99.90;;;;;;5067336;28;20033;-69
2022/10/02 00:55:41;;;;;;;9.73;2.13;;;12.00;99.90;;;;;;5053575;28;20490;-69
2022/10/02 00:58:16;;;;;;;12.32;2.60;;;12.00;99.90;;;;;;5070518;28;20056;-69
2022/10/02 01:00:49;;;;;;;12.80;2.95;;;11.90;99.90;;;;;;5071398;28;20040;-69
2022/10/02 01:03:24;;;;;;;12.10;2.85;;;11.90;99.90;;;;;;5053891;28;20044;-69
2022/10/02 01:05:50;;;;;;;12.43;2.50;;;11.90;99.90;;;;;;5071359;28;20048;-69
2022/10/02 01:08:16;;;;;;;11.50;2.55;;;11.80;99.90;;;;;;5054537;28;20048;-69
2022/10/02 01:10:42;;;;;;;11.40;2.60;;;11.80;99.90;;;;;;5053393;28;20514;-69
2022/10/02 01:13:08;;;;;;;9.85;2.28;;;11.80;99.90;;;;;;5054741;28;20043;-69
2022/10/02 01:15:41;;;;;;;8.80;1.90;;;11.90;99.90;;;;;;5070197;28;20025;-69
2022/10/02 01:18:10;;;;;;;11.15;2.35;;;11.90;99.90;;;;;;5053348;28;20045;-69
2022/10/02 01:20:43;;;;;;;12.45;2.72;;;11.90;99.90;;;;;;5034427;28;20060;-69
2022/10/02 01:23:29;;;;;;;13.20;2.58;;;12.00;99.90;;;;;;5034427;28;20059;-69
2022/10/02 01:25:56;;;;;;;13.73;2.50;;;12.00;99.90;;;;;;5050981;28;20103;-69
2022/10/02 01:28:22;;;;;;;12.82;2.17;;;11.90;99.90;;;;;;5039265;28;20041;-69
2022/10/02 01:30:51;;;;;;;11.20;2.50;;;12.10;99.90;;;;;;5069840;28;20489;-69
2022/10/02 01:33:17;;;;;;;10.05;2.10;;;12.10;99.90;;;;;;5070485;28;20123;-69
2022/10/02 01:35:43;;;;;;;9.77;2.47;;;12.10;99.90;;;;;;5070805;28;20128;-69
2022/10/02 01:38:16;;;;;;;9.52;2.05;;;12.00;99.90;;;;;;5068863;28;20120;-69
2022/10/02 01:40:42;;;;;;;10.13;2.20;;;12.10;99.90;;;;;;5053009;28;20414;-69
2022/10/02 01:43:17;;;;;;;15.07;2.45;;;12.10;99.90;;;;;;5070146;28;20049;-69
2022/10/02 01:46:20;;;;;;;11.38;1.90;;;12.10;99.90;;;;;;5052924;28;20090;-69
2022/10/02 01:48:56;;;;;;;8.48;1.83;;;12.10;99.90;;;;;;5053782;28;20081;-69
2022/10/02 01:52:01;;;;;;;6.80;1.70;;;12.10;99.90;;;;;;5035136;28;20029;-69
2022/10/02 01:54:49;;;;;;;11.50;2.22;;;12.10;99.90;;;;;;5050455;28;20503;-70
2022/10/02 01:57:40;;;;;;;8.10;1.63;;;12.10;99.90;;;;;;5066919;28;20103;-69
2022/10/02 02:00:10;;;;;;;8.20;1.83;;;12.20;99.90;;;;;;5053037;28;20383;-70
2022/10/02 02:03:08;;;;;;;9.57;2.50;;;12.10;99.90;;;;;;5053587;28;20041;-70
2022/10/02 02:05:59;;;;;;;10.57;1.92;;;12.20;99.90;;;;;;5037063;28;20379;-70
2022/10/02 02:08:36;;;;;;;5.88;1.38;;;12.20;99.90;;;;;;5053491;28;20060;-69
2022/10/02 02:11:17;;;;;;;8.15;1.80;;;12.20;99.90;;;;;;5052590;28;20048;-70
2022/10/02 02:13:48;;;;;;;8.55;1.90;;;12.20;99.90;;;;;;5070073;28;20029;-70
2022/10/02 02:16:23;;;;;;;9.70;1.67;;;12.20;99.90;;;;;;5052159;28;20040;-70
2022/10/02 02:18:59;;;;;;;11.57;2.22;;;12.20;99.90;;;;;;5053294;28;20040;-70
2022/10/02 02:21:46;;;;;;;9.65;1.73;;;12.30;99.90;;;;;;5049778;28;20049;-69
2022/10/02 02:24:29;;;;;;;7.65;1.73;;;12.20;99.90;;;;;;5016819;28;20045;-70
2022/10/02 02:26:59;;;;;;;5.50;1.35;;;12.30;99.90;;;;;;5050492;28;20044;-70
2022/10/02 02:29:29;;;;;;;11.30;2.08;;;12.20;99.90;;;;;;5052368;28;20098;-70
2022/10/02 02:31:57;;;;;;;6.68;1.90;;;12.20;99.90;;;;;;5048328;28;20508;-69
2022/10/02 02:34:34;;;;;;;11.55;1.67;;;12.20;99.90;;;;;;5032117;28;20045;-69
2022/10/02 02:37:10;;;;;;;9.32;2.00;;;12.20;99.90;;;;;;5049510;28;20032;-70
2022/10/02 02:40:08;;;;;;;7.70;1.98;;;12.20;99.90;;;;;;5066567;28;20055;-70
2022/10/02 02:42:40;;;;;;;10.35;1.58;;;12.10;99.90;;;;;;5052139;28;20057;-70
2022/10/02 02:45:13;;;;;;;7.93;2.10;;;12.10;99.90;;;;;;5051002;28;20402;-70
2022/10/02 02:47:49;;;;;;;9.25;2.20;;;12.00;99.90;;;;;;5047195;28;20064;-69
2022/10/02 02:50:44;;;;;;;8.05;1.65;;;12.10;99.90;;;;;;5053029;28;20438;-69
2022/10/02 02:53:16;;;;;;;6.28;1.33;;;12.10;99.90;;;;;;5068838;28;20773;-70
2022/10/02 02:55:46;;;;;;;10.27;1.92;;;12.10;99.90;;;;;;5048706;28;20116;-69
2022/10/02 02:58:17;;;;;;;6.65;1.48;;;12.00;99.90;;;;;;5052313;28;20053;-69
2022/10/02 03:00:43;;;;;;;9.32;2.00;;;12.10;99.90;;;;;;5051225;28;20041;-70
2022/10/02 03:03:09;;;;;;;7.90;1.67;;;12.10;99.90;;;;;;5052366;28;20037;-69
2022/10/02 03:05:37;;;;;;;7.28;1.77;;;12.00;99.90;;;;;;5034468;28;20040;-69
2022/10/02 03:08:11;;;;;;;7.55;1.65;;;12.00;99.90;;;;;;5020949;28;20106;-69
2022/10/02 03:10:57;;;;;;;9.32;1.98;;;11.90;99.90;;;;;;5058829;28;20033;-69
2022/10/02 03:13:36;;;;;;;10.50;2.67;;;12.00;99.90;;;;;;5051156;28;20449;-69
2022/10/02 03:16:10;;;;;;;8.75;1.88;;;12.00;99.90;;;;;;5050663;28;20037;-69
2022/10/02 03:19:09;;;;;;;10.52;2.17;;;12.10;99.90;;;;;;5047425;28;20036;-69
2022/10/02 03:21:44;;;;;;;10.00;1.90;;;12.10;99.90;;;;;;5023432;28;20094;-69
2022/10/02 03:24:34;;;;;;;10.35;2.10;;;12.10;99.90;;;;;;5035347;28;20529;-69
2022/10/02 03:27:07;;;;;;;9.30;1.90;;;12.10;99.90;;;;;;5031716;28;20068;-69
2022/10/02 03:30:07;;;;;;;8.95;1.98;;;12.10;99.90;;;;;;5062268;28;20067;-69
2022/10/02 03:32:35;;;;;;;10.77;2.10;;;12.10;99.90;;;;;;5051198;28;20037;-69
2022/10/02 03:35:03;;;;;;;11.30;2.35;;;12.10;99.90;;;;;;5049711;28;20041;-69
2022/10/02 03:37:29;;;;;;;7.97;1.60;;;12.00;99.90;;;;;;5047169;28;20098;-70
2022/10/02 03:40:00;;;;;;;10.82;2.20;;;12.00;99.90;;;;;;5051196;28;20051;-70
2022/10/02 03:42:30;;;;;;;9.70;1.70;;;12.20;99.90;;;;;;5034943;28;20041;-70
2022/10/02 03:44:55;;;;;;;10.73;2.92;;;12.20;99.90;;;;;;5051067;28;20048;-70
2022/10/02 03:47:21;;;;;;;8.75;1.92;;;12.20;99.90;;;;;;5065659;28;20041;-70
2022/10/02 03:49:47;;;;;;;7.43;2.17;;;12.10;99.90;;;;;;5050827;28;20069;-70
2022/10/02 03:52:18;;;;;;;8.13;2.20;;;12.10;99.90;;;;;;5050028;28;20037;-70
2022/10/02 03:54:46;;;;;;;12.88;2.20;;;12.10;99.90;;;;;;5053895;28;20042;-70
2022/10/02 03:57:18;;;;;;;11.40;2.25;;;12.10;99.90;;;;;;5081154;28;20053;-70
2022/10/02 04:00:31;;;;;;;12.50;2.25;;;12.10;99.90;;;;;;5053293;28;20392;-70
2022/10/02 04:03:09;;;;;;;9.35;2.00;;;12.20;99.90;;;;;;5020952;28;20383;-70
2022/10/02 04:05:57;;;;;;;11.25;1.98;;;12.10;99.90;;;;;;5034287;28;20490;-69
2022/10/02 04:08:22;;;;;;;13.85;2.35;;;12.10;99.90;;;;;;5052295;28;20562;-70
2022/10/02 04:11:13;;;;;;;11.98;2.17;;;12.10;99.90;;;;;;5051799;28;20136;-69
2022/10/02 04:13:43;;;;;;;10.23;2.08;;;12.10;99.90;;;;;;5051210;28;20128;-70
2022/10/02 04:16:11;;;;;;;9.40;2.03;;;12.10;99.90;;;;;;5059002;28;20071;-70
2022/10/02 04:18:56;;;;;;;10.07;1.95;;;12.10;99.90;;;;;;5055804;28;20045;-70
2022/10/02 04:21:39;;;;;;;10.18;1.90;;;12.00;99.90;;;;;;5050052;28;20037;-69
2022/10/02 04:24:27;;;;;;;11.02;1.85;;;12.00;99.90;;;;;;5036121;28;20501;-70
2022/10/02 04:27:44;;;;;;;10.73;1.90;;;12.00;99.90;;;;;;5068406;28;20049;-70
2022/10/02 04:30:15;;;;;;;11.20;1.98;;;12.10;99.90;;;;;;5016672;28;20449;-69
2022/10/02 04:32:40;;;;;;;10.18;1.80;;;12.00;99.90;;;;;;5053466;28;20494;-69
2022/10/02 04:35:31;;;;;;;9.32;1.70;;;12.00;99.90;;;;;;5038884;28;20045;-70
2022/10/02 04:38:13;;;;;;;9.27;2.00;;;12.00;99.90;;;;;;5069600;28;20378;-70
2022/10/02 04:41:21;;;;;;;10.75;1.88;;;12.00;99.90;;;;;;5035243;28;20494;-70
2022/10/02 04:44:03;;;;;;;11.13;2.38;;;12.00;99.90;;;;;;5045424;28;20417;-70
2022/10/02 04:46:50;;;;;;;12.40;2.03;;;11.90;99.90;;;;;;5070901;28;20151;-70
2022/10/02 04:49:40;;;;;;;9.27;2.05;;;11.80;99.90;;;;;;5058663;28;20080;-69
2022/10/02 04:52:23;;;;;;;11.77;1.92;;;11.80;99.90;;;;;;5028880;28;20041;-70
2022/10/02 04:55:14;;;;;;;10.60;1.80;;;11.80;99.90;;;;;;5055187;28;20461;-69
2022/10/02 04:58:06;;;;;;;14.73;2.58;;;11.90;99.90;;;;;;5052935;28;20518;-69
2022/10/02 05:00:58;;;;;;;10.95;2.05;;;11.80;99.90;;;;;;5036950;28;20140;-70
2022/10/02 05:03:55;;;;;;;10.88;1.80;;;11.80;99.90;;;;;;5012943;28;20519;-69
2022/10/02 05:06:42;;;;;;;10.10;1.95;;;11.70;99.90;;;;;;5059414;28;20033;-69
2022/10/02 05:09:29;;;;;;;9.35;2.00;;;11.70;99.90;;;;;;5053311;28;20104;-69
2022/10/02 05:12:24;;;;;;;8.25;1.92;;;11.70;99.90;;;;;;5069503;28;20037;-69
2022/10/02 05:15:16;;;;;;;9.00;1.92;;;11.70;99.90;;;;;;5054531;28;20044;-69
2022/10/02 05:17:53;;;;;;;10.23;1.65;;;11.70;99.90;;;;;;5043404;28;20049;-69
2022/10/02 05:20:31;;;;;;;9.32;1.60;;;11.70;99.90;;;;;;5035346;28;20045;-69
2022/10/02 05:23:03;;;;;;;5.10;1.33;;;11.80;99.90;;;;;;5054907;28;20048;-69
2022/10/02 05:26:23;;;;;;;9.18;2.72;;;11.70;99.90;;;;;;5036941;28;20044;-69
2022/10/02 05:29:19;;;;;;;7.68;2.03;;;11.60;99.90;;;;;;5009423;28;20068;-69
2022/10/02 05:32:14;;;;;;;9.02;1.58;;;11.70;99.90;;;;;;5070984;28;20041;-69
2022/10/02 05:34:53;;;;;;;9.90;2.00;;;11.70;99.90;;;;;;5059393;28;20087;-70
2022/10/02 05:37:49;;;;;;;8.82;1.67;;;11.70;99.90;;;;;;5067567;28;20048;-69
2022/10/02 05:40:37;;;;;;;13.00;2.00;;;11.60;99.90;;;;;;5067050;28;20048;-69
2022/10/02 05:43:08;;;;;;;10.55;1.65;;;11.60;99.90;;;;;;5068302;28;20116;-70
2022/10/02 05:45:38;;;;;;;9.68;1.63;;;11.60;99.90;;;;;;5066695;28;20444;-69
2022/10/02 05:48:18;;;;;;;10.73;1.80;;;11.60;99.90;;;;;;5039987;28;20091;-69
2022/10/02 05:50:48;;;;;;;11.20;2.05;;;11.50;99.90;;;;;;5053202;28;20098;-69
2022/10/02 05:53:25;;;;;;;8.98;1.85;;;11.40;99.90;;;;;;5051752;28;20032;-69
2022/10/02 05:56:03;;;;;;;10.05;1.75;;;11.50;99.90;;;;;;5052297;28;20486;-69
2022/10/02 05:58:35;;;;;;;7.07;1.52;;;11.50;99.90;;;;;;5052555;28;20057;-70
2022/10/02 06:01:07;;;;;;;;;;;11.40;99.90;;;;;;5052277;28;20045;-69
2022/10/02 06:03:54;;;;;;;10.02;2.63;;;11.40;99.90;;;;;;5053483;28;19916;-69
2022/10/02 06:06:35;;;;;;;7.38;1.40;;;11.50;99.90;;;;;;5065910;28;20083;-69
2022/10/02 06:09:19;;;;;;;12.10;1.67;;;11.40;99.90;;;;;;5025735;28;20103;-69
2022/10/02 06:12:10;;;;;;;11.40;1.50;;;11.40;99.90;;;;;;5045257;28;20482;-69
2022/10/02 06:14:59;;;;;;;10.77;2.15;;;11.50;99.90;;;;;;5083094;28;20493;-69
2022/10/02 06:18:04;;;;;;;10.15;1.75;;;11.40;99.90;;;;;;5050705;28;20039;-69
2022/10/02 06:20:42;;;;;;;10.95;2.08;;;11.40;99.90;;;;;;5047589;28;20517;-69
2022/10/02 06:23:38;;;;;;;7.80;1.55;;;11.30;99.90;;;;;;5051069;28;20086;-69
2022/10/02 06:26:16;;;;;;;8.13;1.65;;;11.40;99.90;;;;;;5036697;28;20037;-69
2022/10/02 06:28:50;;;;;;;9.27;2.03;;;11.40;99.90;;;;;;5068498;28;20045;-69
2022/10/02 06:31:26;;;;;;;10.70;2.03;;;11.50;99.90;;;;;;5053342;28;20460;-69
2022/10/02 06:33:52;;;;;;;9.50;1.65;;;11.50;99.90;;;;;;5036001;28;20048;-69
2022/10/02 06:36:55;;;;;;;11.07;2.67;;;11.50;99.90;;;;;;5068725;28;20033;-69
2022/10/02 06:39:35;;;;;;;9.63;1.83;;;11.60;99.90;;;;;;5052836;28;20486;-70
2022/10/02 06:42:04;;;;;;;8.45;2.10;;;11.50;99.90;;;;;;5052192;28;20116;-70
2022/10/02 06:45:17;;;;;;;9.07;2.03;;;11.50;99.90;;;;;;5067848;28;20211;-69
2022/10/02 06:47:58;;;;;;;10.98;2.10;;;11.60;99.90;;;;;;5014381;28;20080;-70
2022/10/02 06:50:43;;;;;;;11.23;2.05;;;11.70;99.90;;;;;;5049035;28;20387;-70
2022/10/02 06:53:15;;;;;;;14.30;2.10;;;11.70;99.90;;;;;;5068542;28;20036;-70
2022/10/02 06:56:05;;;;;;;11.30;1.92;;;11.70;99.90;;;;;;5050916;28;20116;-70
2022/10/02 06:59:18;;;;;;;9.27;2.10;;;11.80;99.90;;;;;;5051500;28;20067;-70
2022/10/02 07:02:12;;;;;;;8.55;1.90;;;11.80;99.90;;;;;;5042690;28;20055;-70
2022/10/02 07:05:00;;;;;;;13.45;2.17;;;11.90;99.90;;;;;;5051235;28;20048;-70
2022/10/02 07:07:42;;;;;;;11.32;3.05;;;12.00;99.90;;;;;;5006851;28;20426;-70
2022/10/02 07:10:24;;;;;;;10.00;1.93;;;12.00;99.90;;;;;;5068315;28;20037;-70
2022/10/02 07:12:50;;;;;;;10.57;2.03;;;12.10;99.90;;;;;;5052368;28;20325;-70
2022/10/02 07:15:50;;;;;;;14.35;2.05;;;12.20;99.90;;;;;;5067797;28;20033;-70
2022/10/02 07:19:02;;;;;;;13.95;2.17;;;12.30;99.90;;;;;;5052433;28;20418;-70
2022/10/02 07:21:47;;;;;;;13.93;2.00;;;12.40;99.90;;;;;;5045675;28;20418;-70
2022/10/02 07:24:40;;;;;;;15.60;2.58;;;12.40;99.90;;;;;;5068168;28;20049;-70
2022/10/02 07:27:20;;;;;;;11.18;2.70;;;12.40;99.90;;;;;;5073780;28;20469;-70
2022/10/02 07:29:45;;;;;;;12.63;2.08;;;12.40;99.90;;;;;;5048445;28;20041;-71
2022/10/02 07:32:32;;;;;;;13.20;2.25;;;12.50;99.90;;;;;;5032312;28;20041;-70
2022/10/02 07:35:02;;;;;;;13.70;2.20;;;12.50;99.90;;;;;;5056188;28;20091;-70
2022/10/02 07:37:35;;;;;;;13.75;2.35;;;12.60;99.90;;;;;;5068869;28;20436;-70
2022/10/02 07:40:22;;;;;;;15.27;2.45;;;12.60;99.90;;;;;;5051207;28;20413;-71
2022/10/02 07:43:06;;;;;;;11.80;2.35;;;12.70;99.90;;;;;;5051866;28;20041;-70
2022/10/02 07:45:42;;;;;;;10.77;1.83;;;12.70;99.90;;;;;;5050720;28;20044;-70
2022/10/02 07:48:13;;;;;;;11.68;2.25;;;12.70;99.90;;;;;;5068614;28;20041;-70
2022/10/02 07:50:52;;;;;;;12.98;2.63;;;12.70;99.90;;;;;;5066655;28;20078;-70
2022/10/02 07:53:39;;;;;;;13.25;2.30;;;12.70;99.90;;;;;;5050672;28;20041;-70
2022/10/02 07:56:08;;;;;;;10.60;2.05;;;12.70;99.90;;;;;;5051294;28;20051;-70
2022/10/02 07:58:45;;;;;;;12.82;2.15;;;12.80;99.90;;;;;;5050865;28;20048;-70
2022/10/02 08:01:25;;;;;;;9.93;1.90;;;12.80;99.90;;;;;;5034539;28;20410;-70
2022/10/02 08:03:55;;;;;;;10.73;2.55;;;12.90;99.90;;;;;;5068936;28;20068;-70
2022/10/02 08:06:21;;;;;;;10.63;2.03;;;13.10;99.90;;;;;;5056042;28;20379;-71
2022/10/02 08:09:00;;;;;;;10.10;1.80;;;13.20;99.90;;;;;;5055784;28;20390;-70
2022/10/02 08:11:31;;;;;;;9.00;2.08;;;13.30;99.90;;;;;;5054835;28;20120;-70
2022/10/02 08:14:19;;;;;;;8.05;1.90;;;13.30;99.90;;;;;;5054609;28;20033;-70
2022/10/02 08:16:49;;;;;;;7.10;1.90;;;13.30;99.90;;;;;;5055606;28;20490;-70
2022/10/02 08:19:26;;;;;;;8.30;1.50;;;13.30;99.90;;;;;;5072528;28;20434;-70
2022/10/02 08:21:59;;;;;;;8.77;2.00;;;13.30;99.90;;;;;;5054466;28;20514;-70
2022/10/02 08:24:46;;;;;;;11.73;2.35;;;13.30;99.90;;;;;;5071088;28;20040;-70
2022/10/02 08:27:20;;;;;;;10.80;1.83;;;13.30;99.90;;;;;;5060429;28;20045;-70
2022/10/02 08:30:02;;;;;;;10.45;2.00;;;13.50;99.90;;;;;;5019061;28;20041;-70
2022/10/02 08:32:35;;;;;;;10.35;2.25;;;13.60;99.90;;;;;;5055398;28;20112;-70
2022/10/02 08:35:01;;;;;;;12.27;2.15;;;13.70;99.90;;;;;;5070838;28;20119;-70
2022/10/02 08:37:45;;;;;;;6.82;1.70;;;13.90;99.90;;;;;;5053930;28;20051;-70
2022/10/02 08:40:49;;;;;;;10.02;2.10;;;13.90;99.90;;;;;;5055246;28;20130;-70
2022/10/02 08:43:58;;;;;;;9.52;2.08;;;13.90;99.90;;;;;;5037454;28;20509;-70
2022/10/02 08:46:47;;;;;;;10.60;2.40;;;14.00;99.90;;;;;;5031328;28;20055;-70
2022/10/02 08:49:34;;;;;;;10.52;2.05;;;14.10;99.90;;;;;;5033273;28;20052;-71
2022/10/02 08:52:09;;;;;;;12.48;2.20;;;14.10;99.90;;;;;;5054892;28;20041;-70
2022/10/02 08:55:12;;;;;;;13.43;2.40;;;14.10;99.90;;;;;;5050577;28;20087;-71
2022/10/02 08:58:13;;;;;;;11.13;2.45;;;14.10;99.90;;;;;;5071213;28;20102;-70
2022/10/02 09:00:54;;;;;;;10.98;2.03;;;14.10;99.90;;;;;;5042888;28;20045;-71
2022/10/02 09:03:53;;;;;;;9.65;1.80;;;14.10;99.90;;;;;;5038397;28;20508;-71
2022/10/02 09:06:56;;;;;;;11.98;2.15;;;14.20;99.90;;;;;;5053012;28;20103;-71
2022/10/02 09:10:08;;;;;;;10.65;2.03;;;14.20;99.90;;;;;;5034983;28;20392;-71
2022/10/02 09:12:34;;;;;;;9.73;1.90;;;14.20;99.90;;;;;;5034560;28;20076;-71
2022/10/02 09:15:14;;;;;;;11.45;2.13;;;14.30;99.90;;;;;;5078081;28;20045;-70
2022/10/02 09:18:06;;;;;;;13.38;2.47;;;14.40;99.90;;;;;;5061325;28;20047;-70
2022/10/02 09:20:40;;;;;;;11.25;1.98;;;14.40;99.90;;;;;;5069060;28;20048;-71
2022/10/02 09:23:14;;;;;;;10.38;2.00;;;14.40;99.90;;;;;;5054317;28;20116;-71
2022/10/02 09:25:51;;;;;;;7.68;2.20;;;14.40;99.90;;;;;;5070744;28;20037;-71
2022/10/02 09:28:50;;;;;;;10.60;2.08;;;14.50;99.90;;;;;;5046238;28;20075;-71
2022/10/02 09:31:42;;;;;;;8.90;2.00;;;14.70;99.90;;;;;;5053535;28;20033;-71
2022/10/02 09:34:22;;;;;;;10.35;1.65;;;14.70;99.90;;;;;;5051212;28;20494;-71
2022/10/02 09:36:48;;;;;;;8.35;1.80;;;14.80;99.90;;;;;;5053974;28;20162;-71
2022/10/02 09:39:43;;;;;;;12.27;1.85;;;14.90;99.90;;;;;;5070809;28;20056;-71
2022/10/02 09:42:40;;;;;;;9.18;1.70;;;15.00;99.90;;;;;;5053712;28;20406;-71
2022/10/02 09:45:06;;;;;;;9.27;1.70;;;15.10;99.90;;;;;;5052932;28;20053;-71
2022/10/02 09:48:03;;;;;;;10.88;2.08;;;15.30;99.90;;;;;;5065198;28;20102;-71
2022/10/02 09:51:05;;;;;;;11.30;2.38;;;15.50;99.90;;;;;;5067466;28;20468;-71
2022/10/02 09:54:09;;;;;;;8.47;1.63;;;15.50;99.90;;;;;;5052582;28;20084;-71
2022/10/02 09:56:37;;;;;;;13.27;2.00;;;15.40;99.90;;;;;;5051164;28;20065;-71
2022/10/02 09:59:33;;;;;;;13.25;2.22;;;15.20;99.90;;;;;;5067277;28;20094;-71
2022/10/02 10:02:30;;;;;;;12.35;2.30;;;15.10;99.90;;;;;;5069590;28;20033;-71
2022/10/02 10:05:07;;;;;;;8.35;1.65;;;15.00;99.90;;;;;;5069385;28;20564;-71
2022/10/02 10:07:42;;;;;;;12.02;2.03;;;15.00;99.90;;;;;;5041353;28;20510;-71
2022/10/02 10:10:42;;;;;;;9.68;1.95;;;14.90;99.90;;;;;;5053745;28;20033;-71
2022/10/02 10:13:32;;;;;;;10.63;2.10;;;14.90;99.90;;;;;;5053418;28;20101;-71
2022/10/02 10:16:22;;;;;;;10.32;1.98;;;14.90;99.90;;;;;;5085849;28;20116;-71
2022/10/02 10:19:06;;;;;;;9.13;1.95;;;15.00;99.90;;;;;;5072100;28;20048;-71
2022/10/02 10:22:01;;;;;;;11.90;2.08;;;15.10;99.90;;;;;;5054806;28;20064;-71
2022/10/02 10:25:04;;;;;;;13.15;2.75;;;15.20;99.90;;;;;;5056982;28;20048;-71
2022/10/02 10:28:14;;;;;;;11.60;2.50;;;15.30;99.90;;;;;;5052000;28;20041;-71
2022/10/02 10:30:55;;;;;;;14.32;2.90;;;15.40;99.90;;;;;;5066607;28;20033;-71
2022/10/02 10:33:36;;;;;;;12.48;2.45;;;15.40;99.90;;;;;;5070879;28;20081;-71
2022/10/02 10:39:55;;;;;;;12.80;2.25;;;15.60;99.90;;;;;;5050515;28;20476;-71
2022/10/02 10:42:35;;;;;;;8.70;2.08;;;15.70;99.90;;;;;;5067493;28;20127;-71
2022/10/02 10:45:17;;;;;;;11.60;2.10;;;15.80;99.90;;;;;;5053814;28;20045;-71
2022/10/02 10:47:52;;;;;;;12.73;2.45;;;15.80;99.90;;;;;;5056062;28;20521;-71
2022/10/02 10:50:49;;;;;;;12.77;2.08;;;15.80;99.90;;;;;;5043269;28;20040;-71
2022/10/02 10:53:27;;;;;;;11.70;2.00;;;15.90;99.90;;;;;;5029519;28;20033;-71
2022/10/02 10:56:01;;;;;;;10.48;1.70;;;15.90;99.90;;;;;;5032898;28;20037;-71
2022/10/02 10:58:54;;;;;;;12.60;2.47;;;15.90;99.90;;;;;;5033231;28;20052;-71
2022/10/02 11:01:35;;;;;;;11.80;3.05;;;15.90;99.90;;;;;;5016146;28;20073;-71
2022/10/02 11:04:06;;;;;;;15.10;2.38;;;15.80;99.90;;;;;;5042415;28;20045;-71
2022/10/02 11:07:02;;;;;;;9.70;1.88;;;15.80;99.90;;;;;;5065057;28;20044;-71
2022/10/02 11:09:55;;;;;;;13.65;2.47;;;15.80;99.90;;;;;;5067290;28;20045;-71
2022/10/02 11:12:59;;;;;;;9.68;1.70;;;15.70;99.90;;;;;;5051283;28;20418;-71
2022/10/02 11:15:48;;;;;;;9.77;1.80;;;15.50;99.90;;;;;;5052266;28;20041;-71
2022/10/02 11:18:45;;;;;;;11.10;1.88;;;15.40;99.90;;;;;;5051541;28;20052;-71
2022/10/02 11:21:41;;;;;;;12.40;1.95;;;15.30;99.90;;;;;;5047996;28;20041;-72
2022/10/02 11:24:15;;;;;;;10.15;1.63;;;15.20;99.90;;;;;;5066647;28;20036;-71
2022/10/02 11:27:03;;;;;;;9.27;1.73;;;15.40;99.90;;;;;;5068212;28;20037;-71
2022/10/02 11:30:00;;;;;;;13.77;2.08;;;15.50;99.90;;;;;;5029686;28;20095;-71
2022/10/02 11:32:30;;;;;;;10.73;2.13;;;15.50;99.90;;;;;;5066828;28;20045;-72
2022/10/02 11:35:19;;;;;;;10.75;2.00;;;15.60;99.90;;;;;;5048397;28;20068;-71
2022/10/02 11:37:44;;;;;;;11.30;2.10;;;15.60;99.90;;;;;;5065812;28;20040;-71
2022/10/02 11:40:52;;;;;;;13.07;2.35;;;15.60;99.90;;;;;;5068040;28;20040;-72
2022/10/02 11:43:31;;;;;;;15.35;2.15;;;15.70;99.90;;;;;;5067944;28;20073;-72
2022/10/02 11:46:20;;;;;;;14.65;2.63;;;15.80;99.90;;;;;;5066982;28;20041;-72
2022/10/02 11:49:07;;;;;;;12.32;2.35;;;15.80;99.90;;;;;;5051428;28;20120;-72
2022/10/02 11:51:51;;;;;;;14.70;2.13;;;15.90;99.90;;;;;;5066651;28;20044;-71
2022/10/02 11:54:47;;;;;;;8.27;1.70;;;16.00;99.90;;;;;;5050976;28;20087;-72
2022/10/02 11:57:22;;;;;;;12.70;2.08;;;16.10;99.90;;;;;;5050281;28;20053;-71
2022/10/02 12:00:13;;;;;;;10.20;1.80;;;16.10;99.90;;;;;;5067825;28;20041;-72
2022/10/02 12:03:03;;;;;;;12.55;2.30;;;16.00;99.90;;;;;;5051255;28;20045;-72
2022/10/02 12:06:05;;;;;;;11.52;2.03;;;15.90;99.90;;;;;;5049800;28;20127;-71
2022/10/02 12:08:43;;;;;;;11.48;1.90;;;15.80;99.90;;;;;;5026402;28;20517;-72
2022/10/02 12:11:20;;;;;;;10.65;1.70;;;15.80;99.90;;;;;;5056031;28;20041;-72
2022/10/02 12:14:03;;;;;;;12.73;1.83;;;15.80;99.90;;;;;;5021344;28;20119;-72
2022/10/02 12:16:42;;;;;;;8.57;1.52;;;15.80;99.90;;;;;;5066889;28;20033;-72
2022/10/02 12:19:16;;;;;;;16.15;2.50;;;15.90;99.90;;;;;;5050938;28;20075;-72
2022/10/02 12:27:42;;;;;;;14.23;2.35;;;15.90;99.90;;;;;;5038192;28;20129;-70
2022/10/02 12:30:22;;;;;;;9.73;1.90;;;16.00;99.90;;;;;;5050693;28;20037;-72
2022/10/02 12:33:18;;;;;;;13.02;1.92;;;16.00;99.90;;;;;;5067516;28;20060;-72
2022/10/02 12:35:56;;;;;;;8.93;1.70;;;16.10;99.90;;;;;;5049616;28;20120;-72
2022/10/02 12:38:28;;;;;;;11.38;1.92;;;16.00;99.90;;;;;;5022378;28;20042;-72
2022/10/02 12:41:16;;;;;;;11.35;1.95;;;16.00;99.90;;;;;;5084092;28;20037;-72
2022/10/02 12:44:15;;;;;;;11.00;1.75;;;16.10;99.90;;;;;;5067628;28;20083;-72
2022/10/02 12:46:59;;;;;;;11.50;2.25;;;16.10;99.90;;;;;;5057142;28;20542;-72
2022/10/02 12:50:03;;;;;;;11.48;1.95;;;16.10;99.90;;;;;;5067431;28;20072;-72
2022/10/02 12:52:47;;;;;;;13.50;1.80;;;16.20;99.90;;;;;;5052902;28;20114;-72
2022/10/02 12:55:51;;;;;;;9.15;1.63;;;16.30;99.90;;;;;;5081396;28;20522;-72
2022/10/02 12:58:21;;;;;;;12.63;2.00;;;16.20;99.90;;;;;;5050606;28;20458;-72
2022/10/02 13:01:09;;;;;;;11.57;2.00;;;16.20;99.90;;;;;;5078335;28;20429;-72
2022/10/02 13:03:49;;;;;;;10.02;1.38;;;16.10;99.90;;;;;;5054012;28;20102;-72
2022/10/02 13:06:53;;;;;;;7.78;1.63;;;16.10;99.90;;;;;;5053168;28;20498;-72
2022/10/02 13:09:49;;;;;;;10.55;2.08;;;16.20;99.90;;;;;;5027433;28;20049;-72
2022/10/02 13:12:49;;;;;;;7.82;1.20;;;16.30;99.90;;;;;;5053502;28;20410;-71
2022/10/02 13:15:47;;;;;;;12.48;1.85;;;16.30;99.90;;;;;;5038744;28;20096;-72
2022/10/02 13:18:24;;;;;;;11.35;1.63;;;16.30;99.90;;;;;;5032814;28;20099;-71
2022/10/02 13:21:06;;;;;;;10.02;1.80;;;16.30;99.90;;;;;;5061735;28;20094;-72
2022/10/02 13:23:39;;;;;;;11.98;2.03;;;16.20;99.90;;;;;;5078250;28;20512;-71
2022/10/02 13:26:23;;;;;;;10.82;1.90;;;16.20;99.90;;;;;;5046811;28;20059;-71
2022/10/02 13:29:15;;;;;;;10.80;2.42;;;16.20;99.90;;;;;;5048113;28;20044;-71
2022/10/02 13:31:59;;;;;;;11.68;1.73;;;16.00;99.90;;;;;;5031161;28;20052;-71
2022/10/02 13:34:39;;;;;;;12.27;1.80;;;16.00;99.90;;;;;;5047982;28;20067;-71
2022/10/02 13:37:32;;;;;;;12.18;3.10;;;15.90;99.90;;;;;;5069990;28;20037;-71
2022/10/02 13:40:36;;;;;;;10.70;1.92;;;15.80;99.90;;;;;;5066477;28;20098;-72
2022/10/02 13:43:27;;;;;;;9.55;1.90;;;15.70;99.90;;;;;;5035023;28;20474;-72
2022/10/02 13:46:22;;;;;;;11.77;2.60;;;15.60;99.90;;;;;;5032553;28;20039;-71
2022/10/02 13:49:06;;;;;;;9.85;1.88;;;15.60;99.90;;;;;;5028748;28;20414;-71
2022/10/02 13:52:17;;;;;;;10.85;2.58;;;15.60;99.90;;;;;;5057048;28;20032;-71
2022/10/02 13:55:06;;;;;;;11.13;1.95;;;15.50;99.90;;;;;;4977288;28;20060;-71
2022/10/02 13:58:08;;;;;;;10.05;1.90;;;15.50;99.90;;;;;;5065560;28;20094;-71
2022/10/02 14:00:37;;;;;;;10.95;2.30;;;15.60;99.90;;;;;;5069832;28;20041;-71
2022/10/02 14:03:27;;;;;;;11.32;2.00;;;15.60;99.90;;;;;;5066390;28;20114;-72
2022/10/02 14:06:01;;;;;;;11.88;1.80;;;15.60;99.90;;;;;;5033477;28;20046;-72
2022/10/02 14:08:48;;;;;;;10.02;2.00;;;15.60;99.90;;;;;;5040288;28;20041;-71
2022/10/02 14:11:24;;;;;;;10.90;1.60;;;15.50;99.90;;;;;;5080423;28;20033;-71